Time;durP1;ratioP1;P1;durP2;ratioP2;P2;SDS_P1;SDS_P2;PMS_P1;PMS_P2;Temp;Humidity;BMP_temperature;BMP_pressure;BME280_temperature;BME280_humidity;BME280_pressure;Samples;Min_cycle;Max_cycle;Signal;HPM_P1;HPM_P2
2021/09/15 00:02:02;;;;;;;5.97;3.85;;;;;;;;;;5035945;28;20025;-59
2021/09/15 00:04:28;;;;;;;4.85;3.38;;;;;;;;;;5036005;28;20030;-59
2021/09/15 00:06:54;;;;;;;7.70;3.13;;;;;;;;;;5035574;28;20093;-59
2021/09/15 00:09:20;;;;;;;4.43;3.55;;;;;;;;;;5035611;28;20048;-59
2021/09/15 00:11:46;;;;;;;4.38;3.50;;;;;;;;;;5035648;28;20333;-59
2021/09/15 00:14:12;;;;;;;4.78;4.20;;;;;;;;;;5035699;28;20076;-59
2021/09/15 00:16:38;;;;;;;5.80;4.13;;;;;;;;;;5035050;28;20456;-59
2021/09/15 00:19:04;;;;;;;5.82;3.97;;;;;;;;;;5034426;28;20014;-59
2021/09/15 00:21:30;;;;;;;4.45;3.25;;;;;;;;;;5035741;28;20080;-59
2021/09/15 00:23:56;;;;;;;7.05;4.18;;;;;;;;;;5017707;28;20033;-59
2021/09/15 00:26:22;;;;;;;6.45;4.13;;;;;;;;;;5034841;28;20100;-59
2021/09/15 00:28:48;;;;;;;6.13;4.32;;;;;;;;;;5034839;28;20464;-59
2021/09/15 00:31:14;;;;;;;7.57;5.03;;;;;;;;;;5035056;28;20057;-59
2021/09/15 00:33:40;;;;;;;6.43;4.47;;;;;;;;;;5035278;28;20165;-59
2021/09/15 00:36:07;;;;;;;7.38;5.97;;;;;;;;;;5034400;28;20030;-59
2021/09/15 00:38:33;;;;;;;6.55;4.60;;;;;;;;;;5034697;28;20049;-59
2021/09/15 00:40:59;;;;;;;6.47;4.28;;;;;;;;;;5035421;28;20430;-59
2021/09/15 00:43:25;;;;;;;5.63;4.47;;;;;;;;;;5035273;28;20337;-59
2021/09/15 00:45:51;;;;;;;7.22;4.63;;;;;;;;;;5017611;28;20081;-59
2021/09/15 00:48:17;;;;;;;4.32;3.72;;;;;;;;;;5035075;28;20030;-59
2021/09/15 00:50:43;;;;;;;5.30;3.85;;;;;;;;;;5034464;28;20032;-59
2021/09/15 00:53:09;;;;;;;7.18;4.53;;;;;;;;;;5034508;28;20026;-59
2021/09/15 00:55:35;;;;;;;7.32;4.65;;;;;;;;;;5034641;28;20027;-59
2021/09/15 00:58:01;;;;;;;4.95;4.07;;;;;;;;;;5034319;28;20033;-59
2021/09/15 01:00:27;;;;;;;5.95;4.78;;;;;;;;;;5034268;28;20022;-59
2021/09/15 01:02:56;;;;;;;4.88;4.25;;;;;;;;;;5034731;28;20443;-59
2021/09/15 01:05:22;;;;;;;5.55;3.92;;;;;;;;;;5034474;28;20021;-59
2021/09/15 01:07:48;;;;;;;5.97;4.03;;;;;;;;;;5033822;28;20457;-59
2021/09/15 01:10:14;;;;;;;5.97;4.15;;;;;;;;;;5034042;28;20033;-59
2021/09/15 01:12:40;;;;;;;4.70;3.63;;;;;;;;;;5034244;28;20132;-59
2021/09/15 01:15:07;;;;;;;5.18;3.65;;;;;;;;;;5034143;28;20021;-59
2021/09/15 01:17:33;;;;;;;5.97;3.67;;;;;;;;;;5033726;28;20026;-59
2021/09/15 01:20:01;;;;;;;8.13;4.03;;;;;;;;;;5034123;28;20522;-59
2021/09/15 01:22:28;;;;;;;5.00;4.00;;;;;;;;;;5034657;28;20112;-59
2021/09/15 01:24:55;;;;;;;4.43;3.55;;;;;;;;;;5033789;28;20069;-59
2021/09/15 01:27:21;;;;;;;6.47;3.75;;;;;;;;;;5033511;28;20372;-58
2021/09/15 01:29:47;;;;;;;5.18;4.07;;;;;;;;;;5032981;28;20018;-58
2021/09/15 01:32:14;;;;;;;4.47;3.85;;;;;;;;;;5033523;28;20033;-58
2021/09/15 01:34:44;;;;;;;12.10;4.68;;;;;;;;;;5034220;28;20036;-58
2021/09/15 01:37:11;;;;;;;4.90;4.03;;;;;;;;;;5033701;28;20080;-58
2021/09/15 01:39:37;;;;;;;6.20;3.85;;;;;;;;;;5033716;28;20025;-58
2021/09/15 01:42:04;;;;;;;6.20;4.00;;;;;;;;;;5034296;28;20037;-58
2021/09/15 01:44:41;;;;;;;5.60;4.00;;;;;;;;;;5015847;28;20055;-58
2021/09/15 01:47:08;;;;;;;6.90;4.05;;;;;;;;;;5034430;28;20032;-58
2021/09/15 01:49:35;;;;;;;4.68;3.83;;;;;;;;;;5033580;28;20176;-58
2021/09/15 01:52:01;;;;;;;5.93;3.95;;;;;;;;;;5034253;28;20022;-58
2021/09/15 01:54:28;;;;;;;7.07;3.88;;;;;;;;;;5034226;28;20053;-58
2021/09/15 01:56:54;;;;;;;4.35;3.95;;;;;;;;;;5033791;28;20415;-58
2021/09/15 01:59:20;;;;;;;6.78;4.63;;;;;;;;;;5033778;28;20463;-58
2021/09/15 02:01:46;;;;;;;5.70;4.03;;;;;;;;;;5033177;28;20024;-58
2021/09/15 02:04:12;;;;;;;5.07;4.05;;;;;;;;;;5033349;28;20038;-58
2021/09/15 02:06:38;;;;;;;5.28;4.13;;;;;;;;;;5033616;28;20024;-58
2021/09/15 02:09:05;;;;;;;4.03;3.60;;;;;;;;;;5033892;28;20503;-58
2021/09/15 02:11:32;;;;;;;4.60;3.90;;;;;;;;;;5033669;28;20032;-58
2021/09/15 02:13:58;;;;;;;6.88;4.30;;;;;;;;;;5033077;28;20045;-58
2021/09/15 02:16:24;;;;;;;5.30;4.78;;;;;;;;;;5033273;28;20030;-58
2021/09/15 02:18:50;;;;;;;4.75;4.03;;;;;;;;;;5033250;28;20096;-58
2021/09/15 02:21:17;;;;;;;7.50;4.35;;;;;;;;;;5033494;28;20105;-58
2021/09/15 02:23:43;;;;;;;7.03;4.55;;;;;;;;;;5033782;28;20372;-58
2021/09/15 02:26:09;;;;;;;5.85;4.88;;;;;;;;;;5033263;28;20450;-58
2021/09/15 02:28:36;;;;;;;5.75;4.75;;;;;;;;;;5033279;28;20053;-58
2021/09/15 02:31:02;;;;;;;5.80;4.53;;;;;;;;;;5033244;28;20108;-58
2021/09/15 02:33:28;;;;;;;12.13;5.03;;;;;;;;;;5033792;28;20018;-58
2021/09/15 02:35:54;;;;;;;5.45;4.63;;;;;;;;;;5033170;28;20045;-58
2021/09/15 02:38:20;;;;;;;5.18;4.20;;;;;;;;;;5032840;28;20081;-58
2021/09/15 02:40:46;;;;;;;6.13;4.65;;;;;;;;;;5033795;28;20032;-58
2021/09/15 02:43:12;;;;;;;9.82;5.60;;;;;;;;;;5036806;28;20419;-58
2021/09/15 02:45:38;;;;;;;11.15;5.63;;;;;;;;;;5037063;28;20022;-58
2021/09/15 02:48:04;;;;;;;4.72;4.28;;;;;;;;;;5036781;28;20073;-58
2021/09/15 02:50:30;;;;;;;5.30;4.28;;;;;;;;;;5037251;28;20057;-58
2021/09/15 02:52:57;;;;;;;7.47;4.90;;;;;;;;;;5036644;28;20113;-58
2021/09/15 02:55:23;;;;;;;7.28;5.32;;;;;;;;;;5036541;28;20029;-58
2021/09/15 02:57:49;;;;;;;8.00;5.65;;;;;;;;;;5036849;28;20030;-58
2021/09/15 03:00:15;;;;;;;6.15;5.55;;;;;;;;;;5036455;28;20029;-58
2021/09/15 03:02:41;;;;;;;6.95;4.82;;;;;;;;;;5019245;28;20479;-58
2021/09/15 03:05:07;;;;;;;7.53;5.20;;;;;;;;;;5036705;28;20474;-58
2021/09/15 03:07:33;;;;;;;6.63;5.47;;;;;;;;;;5036419;28;20025;-59
2021/09/15 03:09:59;;;;;;;6.32;5.00;;;;;;;;;;5036365;28;20064;-58
2021/09/15 03:12:25;;;;;;;5.95;5.32;;;;;;;;;;5036609;28;20053;-58
2021/09/15 03:14:51;;;;;;;6.60;5.50;;;;;;;;;;5036270;28;20108;-58
2021/09/15 03:17:17;;;;;;;6.78;6.05;;;;;;;;;;5036465;28;20101;-58
2021/09/15 03:19:45;;;;;;;5.75;4.80;;;;;;;;;;5036150;28;20053;-59
2021/09/15 03:22:11;;;;;;;7.50;5.03;;;;;;;;;;5035829;28;20021;-58
2021/09/15 03:24:37;;;;;;;7.82;5.93;;;;;;;;;;5035965;28;20486;-58
2021/09/15 03:27:04;;;;;;;5.93;5.38;;;;;;;;;;5036068;28;20029;-58
2021/09/15 03:29:30;;;;;;;8.65;5.90;;;;;;;;;;5035909;28;20407;-58
2021/09/15 03:31:57;;;;;;;7.07;6.05;;;;;;;;;;5036791;28;20415;-58
2021/09/15 03:34:23;;;;;;;5.78;4.72;;;;;;;;;;5035925;28;20029;-58
2021/09/15 03:36:48;;;;;;;6.93;4.90;;;;;;;;;;5036186;28;20098;-58
2021/09/15 03:39:14;;;;;;;7.05;5.95;;;;;;;;;;5035907;28;20447;-58
2021/09/15 03:41:41;;;;;;;11.18;5.55;;;;;;;;;;5036059;28;20025;-59
2021/09/15 03:44:07;;;;;;;6.78;5.85;;;;;;;;;;5036028;28;20040;-58
2021/09/15 03:46:33;;;;;;;8.65;5.10;;;;;;;;;;5036037;28;20036;-58
2021/09/15 03:49:00;;;;;;;6.20;5.60;;;;;;;;;;5036011;28;20345;-58
2021/09/15 03:51:26;;;;;;;6.25;5.28;;;;;;;;;;5035951;28;20026;-59
2021/09/15 03:53:52;;;;;;;8.88;4.55;;;;;;;;;;5035252;28;20479;-59
2021/09/15 03:56:21;;;;;;;6.35;5.68;;;;;;;;;;5035596;28;20037;-58
2021/09/15 03:58:47;;;;;;;6.93;4.90;;;;;;;;;;5035817;28;20116;-58
2021/09/15 04:01:14;;;;;;;5.47;4.15;;;;;;;;;;5035759;28;20472;-58
2021/09/15 04:03:40;;;;;;;6.82;5.05;;;;;;;;;;5035908;28;20115;-58
2021/09/15 04:06:06;;;;;;;7.38;4.65;;;;;;;;;;5035088;28;20061;-58
2021/09/15 04:08:34;;;;;;;5.18;4.40;;;;;;;;;;5035478;28;20028;-59
2021/09/15 04:11:00;;;;;;;4.82;4.38;;;;;;;;;;5034715;28;20035;-58
2021/09/15 04:13:26;;;;;;;5.35;4.43;;;;;;;;;;5035417;28;20053;-58
2021/09/15 04:15:52;;;;;;;11.05;5.57;;;;;;;;;;5035929;28;20031;-58
2021/09/15 04:18:22;;;;;;;4.95;4.45;;;;;;;;;;5035857;28;20045;-58
2021/09/15 04:20:48;;;;;;;5.85;4.85;;;;;;;;;;5035057;28;20022;-58
2021/09/15 04:23:22;;;;;;;6.03;4.55;;;;;;;;;;5035136;28;20038;-58
2021/09/15 04:31:24;;;;;;;7.00;4.07;;;;;;;;;;5034879;28;20032;-59
2021/09/15 04:33:51;;;;;;;6.97;4.97;;;;;;;;;;5034983;28;20017;-59
2021/09/15 04:36:17;;;;;;;5.90;4.53;;;;;;;;;;5034690;28;20029;-58
2021/09/15 04:38:43;;;;;;;5.60;4.53;;;;;;;;;;5035027;28;20021;-59
2021/09/15 04:41:10;;;;;;;9.18;4.22;;;;;;;;;;5034668;28;20061;-59
2021/09/15 04:43:36;;;;;;;6.07;4.63;;;;;;;;;;5035096;28;20029;-59
2021/09/15 04:46:02;;;;;;;5.45;4.57;;;;;;;;;;5034334;28;20125;-59
2021/09/15 04:48:28;;;;;;;4.55;4.13;;;;;;;;;;5034841;28;20129;-59
2021/09/15 04:50:54;;;;;;;5.35;4.00;;;;;;;;;;5034805;28;20026;-59
2021/09/15 04:53:21;;;;;;;7.00;4.18;;;;;;;;;;5034548;28;20419;-59
2021/09/15 04:55:47;;;;;;;7.50;4.28;;;;;;;;;;5034973;28;20037;-59
2021/09/15 04:58:13;;;;;;;5.55;4.60;;;;;;;;;;5035164;28;20025;-59
2021/09/15 05:00:39;;;;;;;5.53;4.10;;;;;;;;;;5034329;28;20102;-59
2021/09/15 05:03:05;;;;;;;10.25;5.07;;;;;;;;;;5016502;28;20124;-59
2021/09/15 05:05:31;;;;;;;7.05;4.53;;;;;;;;;;5034408;28;20115;-59
2021/09/15 05:07:57;;;;;;;5.38;4.63;;;;;;;;;;5034477;28;20025;-58
2021/09/15 05:10:26;;;;;;;5.93;4.45;;;;;;;;;;5034109;28;20164;-59
2021/09/15 05:12:53;;;;;;;7.13;4.18;;;;;;;;;;5034389;28;20042;-59
2021/09/15 05:15:19;;;;;;;4.75;4.05;;;;;;;;;;5034008;28;20371;-58
2021/09/15 05:17:46;;;;;;;6.50;5.03;;;;;;;;;;5033987;28;20100;-59
2021/09/15 05:20:16;;;;;;;7.63;4.45;;;;;;;;;;5034525;28;20035;-59
2021/09/15 05:22:42;;;;;;;6.05;4.63;;;;;;;;;;5034640;28;20085;-58
2021/09/15 05:25:08;;;;;;;6.00;4.60;;;;;;;;;;5033989;28;20029;-59
2021/09/15 05:27:34;;;;;;;8.25;4.82;;;;;;;;;;5033851;28;20025;-58
2021/09/15 05:30:00;;;;;;;5.85;4.28;;;;;;;;;;5033927;28;20033;-59
2021/09/15 05:32:26;;;;;;;5.90;4.35;;;;;;;;;;5033565;28;20029;-59
2021/09/15 05:34:55;;;;;;;6.35;4.68;;;;;;;;;;5034060;28;20022;-59
2021/09/15 05:37:21;;;;;;;6.25;4.57;;;;;;;;;;5033814;28;20105;-59
2021/09/15 05:39:47;;;;;;;4.55;4.07;;;;;;;;;;5033682;28;20057;-59
2021/09/15 05:42:13;;;;;;;4.32;3.85;;;;;;;;;;5033831;28;20044;-59
2021/09/15 05:44:39;;;;;;;5.18;4.68;;;;;;;;;;5033632;28;20097;-59
2021/09/15 05:47:04;;;;;;;5.45;4.70;;;;;;;;;;5033645;28;20431;-59
2021/09/15 05:49:30;;;;;;;5.93;5.28;;;;;;;;;;5033923;28;20133;-59
2021/09/15 05:51:56;;;;;;;6.47;5.65;;;;;;;;;;5033701;28;20483;-59
2021/09/15 05:54:22;;;;;;;5.57;4.00;;;;;;;;;;5033592;28;20034;-59
2021/09/15 05:56:48;;;;;;;9.95;4.75;;;;;;;;;;5034118;28;20036;-59
2021/09/15 05:59:14;;;;;;;6.75;4.35;;;;;;;;;;5034076;28;20021;-59
2021/09/15 06:01:40;;;;;;;5.95;4.63;;;;;;;;;;5033471;28;20025;-59
2021/09/15 06:04:06;;;;;;;6.82;4.70;;;;;;;;;;5033328;28;20037;-59
2021/09/15 06:06:32;;;;;;;6.50;5.55;;;;;;;;;;5033655;28;20128;-59
2021/09/15 06:08:59;;;;;;;6.07;5.20;;;;;;;;;;5033742;28;20116;-59
2021/09/15 06:11:25;;;;;;;6.90;5.38;;;;;;;;;;5033336;28;20018;-59
2021/09/15 06:13:55;;;;;;;6.18;4.93;;;;;;;;;;5033165;28;20049;-59
2021/09/15 06:16:24;;;;;;;5.68;4.75;;;;;;;;;;5018546;28;20128;-59
2021/09/15 06:18:50;;;;;;;6.82;5.50;;;;;;;;;;5037418;28;20029;-59
2021/09/15 06:21:20;;;;;;;9.98;5.40;;;;;;;;;;5037374;28;20017;-59
2021/09/15 06:23:46;;;;;;;8.67;6.63;;;;;;;;;;5019317;28;20064;-58
2021/09/15 06:26:12;;;;;;;7.00;5.00;;;;;;;;;;5037750;28;20336;-59
2021/09/15 06:28:39;;;;;;;6.40;5.43;;;;;;;;;;5037221;28;20032;-58
2021/09/15 06:31:05;;;;;;;6.15;5.55;;;;;;;;;;5037043;28;20108;-58
2021/09/15 06:33:31;;;;;;;6.20;5.35;;;;;;;;;;5037504;28;20466;-58
2021/09/15 06:35:57;;;;;;;7.63;5.60;;;;;;;;;;5019911;28;20025;-58
2021/09/15 06:38:26;;;;;;;7.55;5.90;;;;;;;;;;5019265;28;20053;-59
2021/09/15 06:40:52;;;;;;;5.97;5.32;;;;;;;;;;5037204;28;20021;-59
2021/09/15 06:43:18;;;;;;;7.47;5.93;;;;;;;;;;5037415;28;20423;-59
2021/09/15 06:45:44;;;;;;;6.10;4.85;;;;;;;;;;5036910;28;20059;-59
2021/09/15 06:48:10;;;;;;;6.65;5.90;;;;;;;;;;5037591;28;20113;-59
2021/09/15 06:50:36;;;;;;;10.65;5.97;;;;;;;;;;5036993;28;20073;-58
2021/09/15 06:53:02;;;;;;;7.93;5.10;;;;;;;;;;5037049;28;20025;-58
2021/09/15 06:55:28;;;;;;;7.03;5.70;;;;;;;;;;5037132;28;20033;-58
2021/09/15 06:57:54;;;;;;;9.40;5.30;;;;;;;;;;5036684;28;20451;-59
2021/09/15 07:00:20;;;;;;;8.82;6.47;;;;;;;;;;5036582;28;20055;-58
2021/09/15 07:02:47;;;;;;;5.80;5.20;;;;;;;;;;5037011;28;20037;-59
2021/09/15 07:05:13;;;;;;;5.43;4.88;;;;;;;;;;5036507;28;20021;-59
2021/09/15 07:07:39;;;;;;;6.57;5.82;;;;;;;;;;5036127;28;20076;-58
2021/09/15 07:10:06;;;;;;;6.25;5.50;;;;;;;;;;5036658;28;20017;-58
2021/09/15 07:12:32;;;;;;;5.55;4.60;;;;;;;;;;5036459;28;20079;-59
2021/09/15 07:14:58;;;;;;;5.60;4.13;;;;;;;;;;5036039;28;20021;-59
2021/09/15 07:17:24;;;;;;;10.38;5.13;;;;;;;;;;5036460;28;20033;-58
2021/09/15 07:19:50;;;;;;;6.88;4.35;;;;;;;;;;5036781;28;20021;-58
2021/09/15 07:22:18;;;;;;;6.65;4.80;;;;;;;;;;5036763;28;20020;-58
2021/09/15 07:24:44;;;;;;;4.97;4.47;;;;;;;;;;5035674;28;20033;-59
2021/09/15 07:27:10;;;;;;;12.23;5.10;;;;;;;;;;5034982;28;20096;-59
2021/09/15 07:29:38;;;;;;;9.18;5.07;;;;;;;;;;5035413;28;20479;-59
2021/09/15 07:32:04;;;;;;;5.50;4.72;;;;;;;;;;5036116;28;20017;-58
2021/09/15 07:34:30;;;;;;;6.03;5.30;;;;;;;;;;5035706;28;20021;-59
2021/09/15 07:36:56;;;;;;;6.32;5.30;;;;;;;;;;5035641;28;20112;-59
2021/09/15 07:39:22;;;;;;;7.80;5.28;;;;;;;;;;5036209;28;20022;-59
2021/09/15 07:41:48;;;;;;;6.00;5.18;;;;;;;;;;5035620;28;20101;-58
2021/09/15 07:44:14;;;;;;;5.57;4.53;;;;;;;;;;5035711;28;20424;-59
2021/09/15 07:46:40;;;;;;;6.05;4.80;;;;;;;;;;5035791;28;20025;-58
2021/09/15 07:49:06;;;;;;;8.73;5.07;;;;;;;;;;5036047;28;20025;-58
2021/09/15 07:51:32;;;;;;;7.07;5.40;;;;;;;;;;5035676;28;20381;-59
2021/09/15 07:53:59;;;;;;;9.65;5.80;;;;;;;;;;5035993;28;20068;-58
2021/09/15 07:56:25;;;;;;;7.57;5.50;;;;;;;;;;5036333;28;20030;-59
2021/09/15 07:58:51;;;;;;;9.68;5.20;;;;;;;;;;5035489;28;20026;-59
2021/09/15 08:01:21;;;;;;;7.05;5.70;;;;;;;;;;5035524;28;20029;-59
2021/09/15 08:03:47;;;;;;;6.13;5.30;;;;;;;;;;5036019;28;20041;-59
2021/09/15 08:06:13;;;;;;;5.30;4.80;;;;;;;;;;5035441;28;20025;-58
2021/09/15 08:08:39;;;;;;;6.55;4.97;;;;;;;;;;5035225;28;20116;-59
2021/09/15 08:11:05;;;;;;;8.15;5.32;;;;;;;;;;5035378;28;20467;-58
2021/09/15 08:13:31;;;;;;;6.15;4.95;;;;;;;;;;5035023;28;20076;-59
2021/09/15 08:15:56;;;;;;;6.85;5.90;;;;;;;;;;5035242;28;20455;-58
2021/09/15 08:18:23;;;;;;;8.13;5.28;;;;;;;;;;5035164;28;20022;-58
2021/09/15 08:20:49;;;;;;;5.80;5.25;;;;;;;;;;5017464;28;20029;-58
2021/09/15 08:23:15;;;;;;;10.60;6.03;;;;;;;;;;5035073;28;20037;-58
2021/09/15 08:25:41;;;;;;;7.38;4.85;;;;;;;;;;5035021;28;20025;-58
2021/09/15 08:28:08;;;;;;;7.10;5.93;;;;;;;;;;5035198;28;20021;-58
2021/09/15 08:30:37;;;;;;;6.15;5.40;;;;;;;;;;5035664;28;20435;-58
2021/09/15 08:33:03;;;;;;;5.97;5.05;;;;;;;;;;5017557;28;20128;-58
2021/09/15 08:35:30;;;;;;;6.00;5.13;;;;;;;;;;5017371;28;20468;-58
2021/09/15 08:37:56;;;;;;;6.13;5.25;;;;;;;;;;5034695;28;20029;-58
2021/09/15 08:40:22;;;;;;;6.25;5.10;;;;;;;;;;5034293;28;20125;-58
2021/09/15 08:42:48;;;;;;;5.80;5.22;;;;;;;;;;5034578;28;20335;-59
2021/09/15 08:45:14;;;;;;;7.18;5.18;;;;;;;;;;5034936;28;20022;-58
2021/09/15 08:47:42;;;;;;;11.40;4.75;;;;;;;;;;5017653;28;20348;-58
2021/09/15 08:50:09;;;;;;;9.50;6.13;;;;;;;;;;5034479;28;20036;-58
2021/09/15 08:52:35;;;;;;;5.95;4.28;;;;;;;;;;5034293;28;20029;-58
2021/09/15 08:55:01;;;;;;;6.85;5.07;;;;;;;;;;5034449;28;20029;-58
2021/09/15 08:57:28;;;;;;;7.43;5.00;;;;;;;;;;5034365;28;20025;-58
2021/09/15 08:59:54;;;;;;;7.10;4.80;;;;;;;;;;5034911;28;20060;-58
2021/09/15 09:02:20;;;;;;;6.68;3.78;;;;;;;;;;5034672;28;20408;-58
2021/09/15 09:04:51;;;;;;;4.68;3.95;;;;;;;;;;5034244;28;20056;-58
2021/09/15 09:07:17;;;;;;;6.47;4.40;;;;;;;;;;5034287;28;20028;-58
2021/09/15 09:09:47;;;;;;;5.60;3.75;;;;;;;;;;5034194;28;20024;-58
2021/09/15 09:12:13;;;;;;;4.82;3.30;;;;;;;;;;5034912;28;20032;-58
2021/09/15 09:14:39;;;;;;;5.05;3.50;;;;;;;;;;5034454;28;20463;-58
2021/09/15 09:17:05;;;;;;;4.25;3.70;;;;;;;;;;5017090;28;20053;-58
2021/09/15 09:19:31;;;;;;;6.25;3.55;;;;;;;;;;5033758;28;20021;-58
2021/09/15 09:22:00;;;;;;;4.43;3.25;;;;;;;;;;5034350;28;20028;-58
2021/09/15 09:24:26;;;;;;;4.00;3.30;;;;;;;;;;5033905;28;20076;-58
2021/09/15 09:26:54;;;;;;;4.85;3.58;;;;;;;;;;5016290;28;20420;-58
2021/09/15 09:29:24;;;;;;;5.57;3.80;;;;;;;;;;5033935;28;20057;-58
2021/09/15 09:32:00;;;;;;;4.82;3.92;;;;;;;;;;5034534;28;20436;-58
2021/09/15 09:34:27;;;;;;;5.35;3.60;;;;;;;;;;5033911;28;20073;-58
2021/09/15 09:36:59;;;;;;;4.38;3.45;;;;;;;;;;5033825;28;20075;-58
2021/09/15 09:39:33;;;;;;;4.88;3.88;;;;;;;;;;5016345;28;20084;-58
2021/09/15 09:41:59;;;;;;;4.75;3.30;;;;;;;;;;5033578;28;20017;-58
2021/09/15 09:44:29;;;;;;;5.50;3.30;;;;;;;;;;5033682;28;20474;-58
2021/09/15 09:46:55;;;;;;;6.55;3.80;;;;;;;;;;5033760;28;20468;-58
2021/09/15 09:49:21;;;;;;;4.43;3.67;;;;;;;;;;5033702;28;20513;-58
2021/09/15 09:51:46;;;;;;;8.93;4.78;;;;;;;;;;5033176;28;20022;-58
2021/09/15 09:54:14;;;;;;;5.43;3.70;;;;;;;;;;5016365;28;20033;-58
2021/09/15 09:56:41;;;;;;;8.38;4.13;;;;;;;;;;5034132;28;20026;-58
2021/09/15 09:59:08;;;;;;;5.18;3.90;;;;;;;;;;5033426;28;20367;-58
2021/09/15 10:01:38;;;;;;;9.95;4.55;;;;;;;;;;5033542;28;20124;-58
2021/09/15 10:04:04;;;;;;;5.07;3.88;;;;;;;;;;5033951;28;20044;-58
2021/09/15 10:06:30;;;;;;;8.93;4.25;;;;;;;;;;5033511;28;20030;-58
2021/09/15 10:08:56;;;;;;;6.13;4.32;;;;;;;;;;5033481;28;20036;-58
2021/09/15 10:11:23;;;;;;;7.63;4.00;;;;;;;;;;5033541;28;20108;-58
2021/09/15 10:13:49;;;;;;;6.97;4.07;;;;;;;;;;5033488;28;20132;-58
2021/09/15 10:16:18;;;;;;;4.85;4.30;;;;;;;;;;5033152;28;20025;-58
2021/09/15 10:18:52;;;;;;;6.95;4.65;;;;;;;;;;5033808;28;20049;-58
2021/09/15 10:21:18;;;;;;;5.90;4.47;;;;;;;;;;5033852;28;20022;-58
2021/09/15 10:23:49;;;;;;;4.72;4.10;;;;;;;;;;5033766;28;20065;-58
2021/09/15 10:26:14;;;;;;;;;;;;;;;;;;5034143;28;20057;-58
2021/09/15 10:29:00;;;;;;;5.78;3.78;;;;;;;;;;5033666;28;19948;-58
2021/09/15 10:31:45;;;;;;;5.90;4.28;;;;;;;;;;5033858;28;20033;-58
2021/09/15 10:34:31;;;;;;;6.70;4.38;;;;;;;;;;5033707;28;20474;-58
2021/09/15 10:36:57;;;;;;;6.22;4.13;;;;;;;;;;5033414;28;20433;-58
2021/09/15 10:39:23;;;;;;;7.28;4.80;;;;;;;;;;5033728;28;20036;-58
2021/09/15 10:41:51;;;;;;;5.50;3.88;;;;;;;;;;5033511;28;20418;-58
2021/09/15 10:44:21;;;;;;;7.88;4.93;;;;;;;;;;5032825;28;20037;-58
2021/09/15 10:46:47;;;;;;;6.70;4.38;;;;;;;;;;5033104;28;20017;-58
2021/09/15 10:49:19;;;;;;;6.05;3.60;;;;;;;;;;5033089;28;20025;-58
2021/09/15 10:51:46;;;;;;;7.50;4.18;;;;;;;;;;5033947;28;20073;-58
2021/09/15 10:54:33;;;;;;;6.88;3.92;;;;;;;;;;5015384;28;20029;-58
2021/09/15 10:57:12;;;;;;;7.72;4.18;;;;;;;;;;5032989;28;20108;-58
2021/09/15 10:59:48;;;;;;;7.70;4.38;;;;;;;;;;5032989;28;20034;-58
2021/09/15 11:02:23;;;;;;;4.93;4.15;;;;;;;;;;5034541;28;20036;-58
2021/09/15 11:04:49;;;;;;;5.50;3.70;;;;;;;;;;5036439;28;20417;-58
2021/09/15 11:07:51;;;;;;;8.48;4.53;;;;;;;;;;5035984;28;20030;-58
2021/09/15 11:10:35;;;;;;;5.00;4.35;;;;;;;;;;4956168;29;20093;-58
2021/09/15 11:13:03;;;;;;;5.72;4.13;;;;;;;;;;5030417;28;20049;-58
2021/09/15 11:15:30;;;;;;;8.35;4.40;;;;;;;;;;5036220;28;20049;-58
2021/09/15 11:17:57;;;;;;;4.95;3.83;;;;;;;;;;5037085;28;20029;-58
2021/09/15 11:20:24;;;;;;;7.13;3.33;;;;;;;;;;5036321;28;20052;-58
2021/09/15 11:22:50;;;;;;;5.60;3.80;;;;;;;;;;5036477;28;20029;-59
2021/09/15 11:25:17;;;;;;;4.30;3.65;;;;;;;;;;5036100;28;20076;-58
2021/09/15 11:27:43;;;;;;;4.97;4.05;;;;;;;;;;5036017;28;20104;-58
2021/09/15 11:30:09;;;;;;;5.47;3.53;;;;;;;;;;5018521;28;20463;-58
2021/09/15 11:32:35;;;;;;;5.50;4.05;;;;;;;;;;5036729;28;20036;-58
2021/09/15 11:35:05;;;;;;;5.32;4.50;;;;;;;;;;5035692;28;20022;-59
2021/09/15 11:37:32;;;;;;;4.28;3.75;;;;;;;;;;5036741;28;20116;-58
2021/09/15 11:39:59;;;;;;;5.80;4.30;;;;;;;;;;5035790;28;20032;-58
2021/09/15 11:42:30;;;;;;;6.07;4.40;;;;;;;;;;5036544;28;20022;-58
2021/09/15 11:44:57;;;;;;;6.18;3.67;;;;;;;;;;5035898;28;20040;-58
2021/09/15 11:47:26;;;;;;;4.60;3.28;;;;;;;;;;5036150;28;20025;-59
2021/09/15 11:49:52;;;;;;;5.75;3.80;;;;;;;;;;5035828;28;20108;-59
2021/09/15 11:52:18;;;;;;;5.20;3.28;;;;;;;;;;5035595;28;20522;-58
2021/09/15 11:54:49;;;;;;;5.22;4.22;;;;;;;;;;5035722;28;20052;-58
2021/09/15 11:57:16;;;;;;;5.63;4.18;;;;;;;;;;5036104;28;20025;-58
2021/09/15 11:59:42;;;;;;;5.80;4.28;;;;;;;;;;5036012;28;20022;-58
2021/09/15 12:02:14;;;;;;;4.85;4.35;;;;;;;;;;5035859;28;20104;-58
2021/09/15 12:04:44;;;;;;;7.55;4.15;;;;;;;;;;5035258;28;20037;-58
2021/09/15 12:07:10;;;;;;;5.72;4.28;;;;;;;;;;5035658;28;20030;-58
2021/09/15 12:09:38;;;;;;;4.82;4.00;;;;;;;;;;5035452;28;20018;-58
2021/09/15 12:12:08;;;;;;;7.22;4.47;;;;;;;;;;5035591;28;20024;-58
2021/09/15 12:14:34;;;;;;;7.82;4.30;;;;;;;;;;5035029;28;20059;-58
2021/09/15 12:17:01;;;;;;;5.40;4.18;;;;;;;;;;5035445;28;20478;-58
2021/09/15 12:19:30;;;;;;;4.53;4.05;;;;;;;;;;5036154;28;20057;-58
2021/09/15 12:21:56;;;;;;;8.65;3.97;;;;;;;;;;5035451;28;20104;-58
2021/09/15 12:24:26;;;;;;;4.50;4.10;;;;;;;;;;5035538;28;20538;-59
2021/09/15 12:26:52;;;;;;;4.95;4.05;;;;;;;;;;5034977;28;20021;-58
2021/09/15 12:29:22;;;;;;;5.38;4.60;;;;;;;;;;5035530;28;20030;-58
2021/09/15 12:31:59;;;;;;;5.80;4.22;;;;;;;;;;5035123;28;20076;-58
2021/09/15 12:34:33;;;;;;;7.75;4.00;;;;;;;;;;5035022;28;20030;-58
2021/09/15 12:37:15;;;;;;;7.68;3.92;;;;;;;;;;5034732;28;20049;-59
2021/09/15 12:39:49;;;;;;;8.20;4.50;;;;;;;;;;5034940;28;20475;-59
2021/09/15 12:42:19;;;;;;;5.13;4.40;;;;;;;;;;5035516;28;20337;-59
2021/09/15 12:44:45;;;;;;;6.60;4.13;;;;;;;;;;5034695;28;20092;-58
2021/09/15 12:47:12;;;;;;;5.75;3.85;;;;;;;;;;5035207;28;20104;-58
2021/09/15 12:49:39;;;;;;;5.75;3.85;;;;;;;;;;5035056;28;20014;-58
2021/09/15 12:52:08;;;;;;;8.07;4.07;;;;;;;;;;5035420;28;20021;-59
2021/09/15 12:54:35;;;;;;;6.95;3.33;;;;;;;;;;5034995;28;20066;-58
2021/09/15 12:57:18;;;;;;;5.32;3.67;;;;;;;;;;5017284;28;20364;-59
2021/09/15 12:59:44;;;;;;;5.20;3.55;;;;;;;;;;5034362;28;20120;-59
2021/09/15 13:02:19;;;;;;;4.57;3.80;;;;;;;;;;5034756;28;20071;-58
2021/09/15 13:04:45;;;;;;;3.83;3.15;;;;;;;;;;5034195;28;20427;-59
2021/09/15 13:07:11;;;;;;;3.95;3.55;;;;;;;;;;5034647;28;20025;-58
2021/09/15 13:09:37;;;;;;;5.40;4.60;;;;;;;;;;5034174;28;20033;-59
2021/09/15 13:12:03;;;;;;;5.57;3.50;;;;;;;;;;5034153;28;20575;-58
2021/09/15 13:14:29;;;;;;;5.25;3.60;;;;;;;;;;5033940;28;20056;-58
2021/09/15 13:16:55;;;;;;;4.03;3.05;;;;;;;;;;5034783;28;20108;-58
2021/09/15 13:19:21;;;;;;;4.20;3.53;;;;;;;;;;5034269;28;20022;-58
2021/09/15 13:21:47;;;;;;;4.85;3.22;;;;;;;;;;5034043;28;20026;-58
2021/09/15 13:24:13;;;;;;;3.83;2.78;;;;;;;;;;5033759;28;20356;-58
2021/09/15 13:26:39;;;;;;;5.53;3.83;;;;;;;;;;5033348;28;20392;-58
2021/09/15 13:29:05;;;;;;;3.70;2.90;;;;;;;;;;5033824;28;20026;-58
2021/09/15 13:31:32;;;;;;;7.40;4.07;;;;;;;;;;5033473;28;20026;-58
2021/09/15 13:33:58;;;;;;;5.07;3.42;;;;;;;;;;5033528;28;20072;-58
2021/09/15 13:36:24;;;;;;;5.68;3.60;;;;;;;;;;5033783;28;20028;-58
2021/09/15 13:38:50;;;;;;;4.55;2.75;;;;;;;;;;5033740;28;20018;-58
2021/09/15 13:41:16;;;;;;;7.80;3.45;;;;;;;;;;5034103;28;20087;-58
2021/09/15 13:43:45;;;;;;;4.80;3.03;;;;;;;;;;5034239;28;20033;-58
2021/09/15 13:46:11;;;;;;;3.92;3.38;;;;;;;;;;5033564;28;20021;-58
2021/09/15 13:48:37;;;;;;;4.28;3.25;;;;;;;;;;5033363;28;20025;-58
2021/09/15 13:51:03;;;;;;;5.65;3.33;;;;;;;;;;5034007;28;20491;-58
2021/09/15 13:53:29;;;;;;;5.50;3.42;;;;;;;;;;5034525;28;20060;-58
2021/09/15 13:55:55;;;;;;;4.80;3.15;;;;;;;;;;5033934;28;20022;-58
2021/09/15 13:58:21;;;;;;;6.03;3.42;;;;;;;;;;5033526;28;20100;-58
2021/09/15 14:00:47;;;;;;;4.35;2.90;;;;;;;;;;5033532;28;20029;-58
2021/09/15 14:03:13;;;;;;;4.22;3.28;;;;;;;;;;5033801;28;20025;-58
2021/09/15 14:05:39;;;;;;;4.47;3.10;;;;;;;;;;5033792;28;20021;-58
2021/09/15 14:08:05;;;;;;;3.78;3.13;;;;;;;;;;5033545;28;20026;-58
2021/09/15 14:10:31;;;;;;;3.28;2.70;;;;;;;;;;5033844;28;20017;-58
2021/09/15 14:12:57;;;;;;;4.40;2.97;;;;;;;;;;5033599;28;20041;-58
2021/09/15 14:15:24;;;;;;;5.43;3.20;;;;;;;;;;5034303;28;20017;-58
2021/09/15 14:17:50;;;;;;;5.97;3.50;;;;;;;;;;5033497;28;20052;-58
2021/09/15 14:20:17;;;;;;;5.22;2.78;;;;;;;;;;5016044;28;20025;-58
2021/09/15 14:22:43;;;;;;;5.03;3.08;;;;;;;;;;5033334;28;20482;-58
2021/09/15 14:25:09;;;;;;;3.45;2.83;;;;;;;;;;5033663;28;20108;-58
2021/09/15 14:27:35;;;;;;;4.88;3.25;;;;;;;;;;5033291;28;20108;-58
2021/09/15 14:30:02;;;;;;;4.63;2.67;;;;;;;;;;5033389;28;20460;-58
2021/09/15 14:32:28;;;;;;;5.63;3.70;;;;;;;;;;5033587;28;20087;-58
2021/09/15 14:34:54;;;;;;;4.65;3.65;;;;;;;;;;5033250;28;20024;-58
2021/09/15 14:37:20;;;;;;;5.32;3.65;;;;;;;;;;5035125;28;20022;-58
2021/09/15 14:39:46;;;;;;;9.60;4.03;;;;;;;;;;5037562;28;20044;-58
2021/09/15 14:42:13;;;;;;;4.18;3.03;;;;;;;;;;5037584;28;20022;-58
2021/09/15 14:44:39;;;;;;;4.50;3.35;;;;;;;;;;5036740;28;20057;-58
2021/09/15 14:47:05;;;;;;;3.65;2.40;;;;;;;;;;5036871;28;20067;-58
2021/09/15 14:49:31;;;;;;;3.70;2.90;;;;;;;;;;5019434;28;20459;-58